Burlington, Indiana
Current Conditions -  °F | °C
As of 10:55 PM on Saturday 20 Dec 2014 (Local Time) from KGGP Reporting Station
Haze Haze  
Wind Chill: -1°   Ceiling: 6500
Heat Index: -1°   Visibility: 5mi
Dew Point: -2°   Wind: 0mph
Humidity: 93%   Direction: NA
Pressure: 30.29"   Gusts: NA
Location:  40.48°N, 86.39°W
Report Text: KGGP 210355Z AUTO 00000KT 5SM BR OVC065 M01/M02 A3029 RMK AO2
Loading
Personal Weather Stations






























Interactive Weather Map New forecast layout! Learn more

10-Day Weather Forecast

Advertisements
Track Severe Weather on mobile